createdAt,value
2019-04-10T00:01:34.128Z,56.80
2019-04-10T00:04:14.941Z,53.85
2019-04-10T00:07:07.809Z,55.00
2019-04-10T00:09:37.957Z,55.75
2019-04-10T00:12:18.909Z,54.85
2019-04-10T00:14:59.529Z,54.95
2019-04-10T00:17:40.934Z,53.33
2019-04-10T00:20:22.560Z,55.75
2019-04-10T00:23:03.766Z,54.18
2019-04-10T00:25:45.322Z,56.40
2019-04-10T00:28:26.585Z,54.88
2019-04-10T00:31:08.129Z,55.17
2019-04-10T00:33:49.301Z,54.77
2019-04-10T00:36:29.765Z,53.25
2019-04-10T00:39:10.685Z,52.20
2019-04-10T00:41:52.528Z,54.95
2019-04-10T00:44:33.301Z,54.18
2019-04-10T00:47:14.883Z,53.87
2019-04-10T00:49:56.056Z,55.73
2019-04-10T00:52:36.721Z,54.17
2019-04-10T00:55:17.587Z,53.63
2019-04-10T00:57:58.216Z,52.98
2019-04-10T01:00:39.273Z,54.38
2019-04-10T01:03:40.049Z,53.50
2019-04-10T01:06:21.975Z,53.30
2019-04-10T01:09:03.201Z,52.65
2019-04-10T01:11:43.412Z,54.60
2019-04-10T01:14:24.110Z,54.30
2019-04-10T01:17:04.890Z,53.63
2019-04-10T01:19:45.712Z,53.38
2019-04-10T01:22:27.475Z,53.23
2019-04-10T01:25:08.366Z,52.17
2019-04-10T01:27:48.787Z,52.50
2019-04-10T01:30:30.519Z,52.30
2019-04-10T01:33:11.188Z,52.55
2019-04-10T01:35:52.085Z,52.30
2019-04-10T01:38:33.507Z,51.92
2019-04-10T01:41:15.291Z,53.25
2019-04-10T01:43:57.300Z,53.43
2019-04-10T01:46:38.140Z,52.53
2019-04-10T01:49:19.663Z,53.50
2019-04-10T01:52:01.008Z,51.30
2019-04-10T01:54:44.422Z,51.20
2019-04-10T01:57:24.419Z,51.65
2019-04-10T02:00:05.308Z,50.83
2019-04-10T02:02:50.157Z,48.85
2019-04-10T02:05:30.940Z,51.00
2019-04-10T02:08:14.392Z,49.20
2019-04-10T02:10:54.480Z,48.73
2019-04-10T02:13:35.882Z,50.38
2019-04-10T02:16:16.879Z,47.00
2019-04-10T02:18:57.745Z,48.28
2019-04-10T02:21:38.769Z,46.10
2019-04-10T02:24:19.602Z,46.48
2019-04-10T02:27:00.837Z,44.80
2019-04-10T02:29:42.016Z,46.25
2019-04-10T02:32:24.096Z,44.88
2019-04-10T02:35:06.879Z,44.13
2019-04-10T02:37:52.508Z,43.87
2019-04-10T02:40:33.028Z,44.65
2019-04-10T02:43:15.556Z,43.27
2019-04-10T02:45:57.731Z,41.58
2019-04-10T02:48:39.413Z,42.27
2019-04-10T02:51:22.863Z,40.67
2019-04-10T02:54:02.753Z,39.85
2019-04-10T02:56:44.058Z,39.63
2019-04-10T02:59:27.057Z,38.40
2019-04-10T03:02:08.723Z,37.80
2019-04-10T03:04:50.925Z,37.63
2019-04-10T03:07:32.124Z,37.38
2019-04-10T03:10:24.728Z,36.25
2019-04-10T03:12:58.555Z,35.80
2019-04-10T03:15:40.934Z,35.87
2019-04-10T03:18:21.521Z,35.23
2019-04-10T03:21:02.752Z,33.83
2019-04-10T03:23:43.243Z,33.50
2019-04-10T03:26:23.852Z,31.90
2019-04-10T03:29:05.294Z,32.28
2019-04-10T03:31:47.767Z,31.12
2019-04-10T03:34:33.206Z,30.65
2019-04-10T03:37:13.061Z,30.35
2019-04-10T03:39:53.864Z,29.30
2019-04-10T03:42:35.009Z,29.40
2019-04-10T03:45:15.709Z,27.67
2019-04-10T03:47:57.992Z,27.87
2019-04-10T03:50:39.596Z,28.35
2019-04-10T03:53:20.527Z,28.37
2019-04-10T03:56:01.771Z,25.83
2019-04-10T03:58:43.936Z,27.87
2019-04-10T04:01:25.122Z,27.17
2019-04-10T04:04:06.977Z,26.70
2019-04-10T04:06:48.177Z,27.95
2019-04-10T04:09:29.415Z,27.20
2019-04-10T04:12:10.665Z,27.13
2019-04-10T04:14:51.459Z,27.50
2019-04-10T04:17:32.523Z,26.35
2019-04-10T04:20:12.920Z,27.25
2019-04-10T04:22:54.704Z,26.97
2019-04-10T04:25:36.608Z,27.80
2019-04-10T04:28:17.617Z,27.90
2019-04-10T04:30:58.896Z,27.97
2019-04-10T04:33:41.052Z,28.23
2019-04-10T04:36:10.430Z,28.17
2019-04-10T04:38:39.725Z,28.03
2019-04-10T04:41:09.048Z,28.27
2019-04-10T04:43:39.092Z,28.25
2019-04-10T04:46:08.074Z,29.20
2019-04-10T04:48:37.227Z,29.10
2019-04-10T04:51:06.686Z,30.25
2019-04-10T04:53:36.409Z,29.77
2019-04-10T04:56:05.400Z,30.52
2019-04-10T04:58:34.184Z,30.23
2019-04-10T05:01:02.928Z,32.03
2019-04-10T05:03:31.665Z,32.05
2019-04-10T05:06:00.418Z,31.45
2019-04-10T05:08:30.238Z,33.75
2019-04-10T05:11:00.145Z,32.00
2019-04-10T05:13:29.056Z,32.75
2019-04-10T05:15:57.819Z,32.07
2019-04-10T05:18:27.456Z,32.58
2019-04-10T05:20:56.733Z,33.67
2019-04-10T05:23:26.513Z,33.57
2019-04-10T05:25:56.165Z,34.10
2019-04-10T05:28:26.287Z,33.92
2019-04-10T05:30:55.236Z,29.12
2019-04-10T05:33:24.724Z,30.05
2019-04-10T05:35:54.893Z,29.70
2019-04-10T05:38:24.895Z,30.35
2019-04-10T05:40:55.070Z,30.70
2019-04-10T05:43:24.113Z,29.42
2019-04-10T05:45:53.194Z,30.07
2019-04-10T05:48:23.588Z,31.45
2019-04-10T05:50:56.447Z,29.75
2019-04-10T05:53:22.929Z,29.25
2019-04-10T05:55:51.764Z,30.40
2019-04-10T05:58:21.622Z,29.97
2019-04-10T06:00:51.430Z,30.50
2019-04-10T06:03:20.739Z,30.03
2019-04-10T06:05:50.803Z,29.35
2019-04-10T06:08:19.765Z,28.07
2019-04-10T06:10:48.474Z,29.40
2019-04-10T06:13:17.374Z,29.30
2019-04-10T06:15:47.434Z,29.10
2019-04-10T06:18:16.381Z,28.57
2019-04-10T06:20:45.496Z,28.70
2019-04-10T06:23:14.997Z,29.48
2019-04-10T06:25:43.861Z,28.30
2019-04-10T06:28:13.145Z,29.25
2019-04-10T06:30:42.070Z,28.47
2019-04-10T06:33:11.727Z,28.62
2019-04-10T06:35:40.929Z,27.50
2019-04-10T06:38:10.719Z,27.73
2019-04-10T06:40:39.749Z,29.35
2019-04-10T06:43:08.648Z,29.12
2019-04-10T06:45:37.481Z,28.32
2019-04-10T06:48:06.815Z,28.12
2019-04-10T06:50:35.758Z,28.40
2019-04-10T06:53:04.798Z,28.77
2019-04-10T06:55:33.645Z,28.53
2019-04-10T06:58:02.891Z,28.90
2019-04-10T07:00:32.715Z,27.67
2019-04-10T07:03:02.991Z,28.52
2019-04-10T07:05:41.324Z,28.55
2019-04-10T07:08:12.235Z,28.57
2019-04-10T07:11:02.618Z,29.00
2019-04-10T07:13:26.089Z,27.85
2019-04-10T07:15:58.200Z,27.80
2019-04-10T07:18:26.406Z,27.58
2019-04-10T07:20:58.350Z,28.55
2019-04-10T07:23:28.814Z,29.60
2019-04-10T07:25:58.285Z,28.10
2019-04-10T07:28:27.810Z,29.07
2019-04-10T07:30:59.423Z,28.95
2019-04-10T07:33:27.258Z,28.80
2019-04-10T07:35:56.673Z,29.25
2019-04-10T07:38:26.618Z,28.57
2019-04-10T07:40:56.714Z,30.02
2019-04-10T07:43:27.599Z,29.23
2019-04-10T07:45:57.338Z,29.80
2019-04-10T07:48:27.370Z,28.60
2019-04-10T07:50:56.260Z,29.35
2019-04-10T07:53:24.985Z,29.52
2019-04-10T07:56:01.392Z,31.25
2019-04-10T07:58:24.432Z,30.05
2019-04-10T08:00:56.745Z,29.52
2019-04-10T08:03:25.543Z,30.45
2019-04-10T08:05:54.770Z,30.30
2019-04-10T08:08:24.028Z,30.32
2019-04-10T08:10:57.299Z,29.87
2019-04-10T08:13:26.816Z,31.75
2019-04-10T08:15:56.323Z,30.23
2019-04-10T08:18:25.477Z,29.50
2019-04-10T08:20:55.177Z,29.55
2019-04-10T08:23:24.062Z,29.98
2019-04-10T08:25:53.746Z,29.42
2019-04-10T08:28:23.992Z,28.50
2019-04-10T08:30:53.007Z,29.35
2019-04-10T08:33:21.909Z,28.83
2019-04-10T08:35:50.661Z,28.32
2019-04-10T08:38:20.180Z,29.45
2019-04-10T08:40:49.301Z,29.30
2019-04-10T08:43:18.093Z,28.32
2019-04-10T08:45:51.039Z,29.25
2019-04-10T08:48:17.696Z,28.75
2019-04-10T08:50:46.608Z,30.05
2019-04-10T08:53:15.328Z,28.50
2019-04-10T08:55:44.149Z,28.32
2019-04-10T08:58:14.450Z,28.80
2019-04-10T09:00:43.424Z,30.12
2019-04-10T09:03:12.942Z,28.52
2019-04-10T09:05:42.689Z,28.87
2019-04-10T09:08:12.605Z,29.65
2019-04-10T09:10:42.718Z,29.00
2019-04-10T09:13:12.517Z,27.87
2019-04-10T09:15:42.357Z,28.52
2019-04-10T09:18:11.501Z,28.40
2019-04-10T09:20:42.400Z,27.48
2019-04-10T09:23:28.931Z,28.05
2019-04-10T09:25:42.201Z,28.45
2019-04-10T09:28:11.092Z,26.97
2019-04-10T09:30:40.766Z,27.20
2019-04-10T09:33:20.968Z,27.48
2019-04-10T09:35:40.625Z,27.67
2019-04-10T09:38:10.494Z,28.17
2019-04-10T09:40:40.293Z,27.85
2019-04-10T09:43:09.453Z,27.75
2019-04-10T09:45:39.200Z,27.37
2019-04-10T09:48:08.550Z,28.32
2019-04-10T09:50:37.781Z,27.97
2019-04-10T09:53:06.733Z,29.02
2019-04-10T09:55:36.311Z,27.65
2019-04-10T09:58:05.125Z,26.42
2019-04-10T10:00:34.245Z,28.15
2019-04-10T10:03:03.503Z,26.73
2019-04-10T10:05:32.785Z,25.90
2019-04-10T10:08:02.255Z,26.15
2019-04-10T10:10:34.117Z,24.98
2019-04-10T10:13:01.826Z,24.95
2019-04-10T10:15:49.871Z,24.90
2019-04-10T10:18:21.446Z,25.00
2019-04-10T10:20:50.768Z,25.37
2019-04-10T10:23:19.998Z,25.00
2019-04-10T10:25:49.014Z,25.20
2019-04-10T10:28:18.670Z,24.70
2019-04-10T10:30:47.954Z,25.57
2019-04-10T10:33:18.650Z,25.55
2019-04-10T10:35:47.531Z,24.87
2019-04-10T10:38:19.262Z,24.45
2019-04-10T10:40:50.726Z,24.47
2019-04-10T10:43:20.493Z,25.85
2019-04-10T10:45:49.452Z,27.22
2019-04-10T10:48:18.530Z,24.40
2019-04-10T10:51:06.718Z,24.10
2019-04-10T10:53:54.754Z,23.75
2019-04-10T10:56:24.440Z,23.10
2019-04-10T10:59:13.375Z,25.17
2019-04-10T11:02:02.357Z,23.98
2019-04-10T11:04:51.686Z,22.37
2019-04-10T11:07:40.800Z,22.22
2019-04-10T11:10:30.058Z,24.30
2019-04-10T11:13:18.906Z,23.45
2019-04-10T11:16:09.248Z,23.50
2019-04-10T11:18:59.006Z,24.00
2019-04-10T11:21:40.977Z,23.02
2019-04-10T11:24:22.829Z,22.42
2019-04-10T11:27:06.282Z,23.50
2019-04-10T11:29:47.901Z,22.87
2019-04-10T11:32:28.881Z,23.02
2019-04-10T11:35:11.459Z,22.22
2019-04-10T11:37:59.012Z,22.00
2019-04-10T11:40:36.610Z,21.10
2019-04-10T11:43:17.390Z,22.37
2019-04-10T11:46:01.766Z,21.33
2019-04-10T11:48:44.635Z,20.55
2019-04-10T11:51:26.333Z,19.93
2019-04-10T11:56:52.671Z,21.60
2019-04-10T11:59:35.211Z,20.57
2019-04-10T12:02:16.923Z,20.40
2019-04-10T12:05:01.673Z,20.43
2019-04-10T12:08:21.080Z,20.32
2019-04-10T12:13:06.061Z,20.65
2019-04-10T12:15:46.924Z,19.98
2019-04-10T12:18:28.707Z,20.32
2019-04-10T12:20:57.669Z,20.17
2019-04-10T12:23:27.225Z,19.23
2019-04-10T12:26:16.432Z,18.82
2019-04-10T12:29:04.612Z,19.95
2019-04-10T12:31:52.589Z,19.05
2019-04-10T12:34:40.821Z,18.90
2019-04-10T12:37:28.793Z,19.67
2019-04-10T12:40:17.349Z,19.82
2019-04-10T12:43:05.413Z,18.87
2019-04-10T12:45:53.388Z,18.48
2019-04-10T12:48:41.473Z,18.87
2019-04-10T12:51:29.773Z,18.45
2019-04-10T12:54:19.566Z,18.67
2019-04-10T12:57:08.832Z,18.15
2019-04-10T13:00:01.548Z,17.82
2019-04-10T13:02:47.006Z,18.67
2019-04-10T13:05:37.497Z,19.40
2019-04-10T13:08:39.936Z,19.10
2019-04-10T13:11:16.280Z,18.20
2019-04-10T13:14:04.433Z,18.77
2019-04-10T13:16:52.389Z,17.95
2019-04-10T13:19:40.984Z,17.27
2019-04-10T13:22:22.927Z,18.17
2019-04-10T13:25:03.648Z,17.50
2019-04-10T13:27:45.220Z,18.23
2019-04-10T13:30:27.019Z,18.62
2019-04-10T13:33:08.689Z,16.97
2019-04-10T13:35:49.777Z,17.73
2019-04-10T13:38:34.011Z,18.27
2019-04-10T13:41:12.639Z,18.20
2019-04-10T13:43:53.949Z,17.90
2019-04-10T13:46:35.338Z,17.02
2019-04-10T13:49:15.755Z,17.55
2019-04-10T13:51:56.570Z,17.07
2019-04-10T13:54:37.017Z,17.23
2019-04-10T13:57:18.162Z,17.87
2019-04-10T13:59:59.565Z,16.93
2019-04-10T14:02:40.154Z,16.90
2019-04-10T14:05:21.983Z,17.45
2019-04-10T14:08:03.216Z,16.12
2019-04-10T14:10:44.545Z,18.02
2019-04-10T14:13:25.355Z,16.85
2019-04-10T14:16:06.518Z,17.55
2019-04-10T14:18:47.020Z,17.80
2019-04-10T14:21:27.765Z,16.57
2019-04-10T14:24:07.326Z,15.85
2019-04-10T14:30:00.819Z,15.98
2019-04-10T14:32:49.533Z,16.73
2019-04-10T14:35:39.068Z,15.20
2019-04-10T14:38:28.627Z,16.10
2019-04-10T14:41:17.883Z,17.87
2019-04-10T14:44:06.911Z,16.35
2019-04-10T14:46:55.207Z,16.23
2019-04-10T14:49:43.459Z,17.20
2019-04-10T14:52:31.551Z,16.75
2019-04-10T14:55:22.013Z,16.77
2019-04-10T14:58:20.780Z,17.30
2019-04-10T15:01:02.659Z,17.60
2019-04-10T15:03:50.885Z,16.70
2019-04-10T15:06:41.642Z,17.35
2019-04-10T15:09:30.726Z,17.62
2019-04-10T15:12:00.996Z,16.35
2019-04-10T15:14:32.825Z,16.60
2019-04-10T15:17:21.054Z,16.93
2019-04-10T15:20:09.838Z,16.55
2019-04-10T15:22:38.731Z,17.73
2019-04-10T15:25:27.053Z,17.40
2019-04-10T15:28:16.050Z,17.57
2019-04-10T15:31:04.789Z,18.20
2019-04-10T15:33:53.795Z,17.25
2019-04-10T15:36:44.727Z,17.77
2019-04-10T15:39:36.285Z,17.17
2019-04-10T15:42:22.459Z,17.60
2019-04-10T15:45:10.640Z,17.73
2019-04-10T15:48:01.587Z,17.07
2019-04-10T15:50:51.807Z,16.57
2019-04-10T15:53:41.053Z,16.67
2019-04-10T15:56:30.330Z,16.93
2019-04-10T15:59:18.329Z,16.10
2019-04-10T16:02:07.700Z,17.00
2019-04-10T16:04:57.276Z,15.85
2019-04-10T16:07:46.936Z,17.15
2019-04-10T16:13:56.948Z,16.15
2019-04-10T16:20:23.753Z,16.35
2019-04-10T16:25:52.217Z,16.05
2019-04-10T16:28:33.551Z,16.75
2019-04-10T16:31:15.141Z,16.07
2019-04-10T16:33:56.695Z,15.83
2019-04-10T16:36:37.399Z,16.00
2019-04-10T16:42:02.824Z,15.88
2019-04-10T16:44:51.249Z,15.75
2019-04-10T16:47:40.471Z,15.80
2019-04-10T16:50:47.828Z,16.77
2019-04-10T16:53:36.293Z,16.02
2019-04-10T16:56:25.580Z,16.30
2019-04-10T16:59:14.219Z,16.12
2019-04-10T17:02:03.820Z,16.12
2019-04-10T17:04:54.004Z,16.12
2019-04-10T17:07:43.281Z,16.42
2019-04-10T17:13:28.678Z,16.95
2019-04-10T17:16:17.729Z,15.93
2019-04-10T17:19:07.709Z,16.55
2019-04-10T17:21:50.132Z,16.62
2019-04-10T17:24:31.501Z,15.87
2019-04-10T17:27:13.120Z,16.70
2019-04-10T17:29:55.248Z,16.83
2019-04-10T17:32:36.557Z,17.37
2019-04-10T17:35:17.657Z,18.02
2019-04-10T17:37:58.612Z,17.77
2019-04-10T17:40:46.365Z,17.52
2019-04-10T17:43:23.082Z,18.40
2019-04-10T17:46:04.873Z,18.10
2019-04-10T17:48:46.160Z,18.20
2019-04-10T17:51:15.453Z,17.77
2019-04-10T17:53:45.380Z,17.80
2019-04-10T17:56:33.600Z,18.17
2019-04-10T17:59:22.501Z,21.17
2019-04-10T18:05:08.502Z,17.98
2019-04-10T18:07:58.693Z,18.07
2019-04-10T18:13:42.693Z,18.82
2019-04-10T18:16:31.732Z,18.20
2019-04-10T18:19:21.336Z,17.90
2019-04-10T18:22:03.703Z,18.12
2019-04-10T18:24:45.408Z,18.45
2019-04-10T18:27:26.323Z,18.42
2019-04-10T18:30:07.885Z,18.15
2019-04-10T18:32:49.775Z,18.00
2019-04-10T18:35:30.869Z,17.67
2019-04-10T18:38:13.280Z,17.60
2019-04-10T18:41:01.632Z,17.77
2019-04-10T18:46:29.843Z,16.90
2019-04-10T18:49:11.443Z,17.00
2019-04-10T18:51:52.417Z,16.77
2019-04-10T18:54:34.019Z,16.57
2019-04-10T18:57:15.724Z,16.70
2019-04-10T19:03:25.960Z,16.40
2019-04-10T19:06:10.342Z,17.15
2019-04-10T19:09:04.704Z,17.60
2019-04-10T19:11:35.410Z,17.55
2019-04-10T19:14:16.359Z,17.05
2019-04-10T19:16:56.758Z,17.40
2019-04-10T19:19:40.412Z,16.47
2019-04-10T19:22:20.409Z,16.70
2019-04-10T19:25:01.210Z,17.48
2019-04-10T19:27:42.339Z,16.80
2019-04-10T19:30:43.574Z,17.23
2019-04-10T19:33:25.886Z,17.00
2019-04-10T19:36:07.717Z,16.80
2019-04-10T19:38:49.622Z,17.10
2019-04-10T19:41:35.886Z,16.80
2019-04-10T19:44:13.328Z,16.65
2019-04-10T19:46:54.132Z,16.97
2019-04-10T19:49:35.034Z,16.37
2019-04-10T19:52:16.017Z,15.68
2019-04-10T19:54:57.506Z,15.72
2019-04-10T19:57:39.475Z,15.70
2019-04-10T20:00:22.587Z,15.50
2019-04-10T20:03:03.758Z,15.60
2019-04-10T20:05:44.385Z,15.65
2019-04-10T20:08:25.894Z,15.53
2019-04-10T20:11:06.756Z,15.40
2019-04-10T20:13:47.294Z,15.45
2019-04-10T20:16:28.616Z,15.30
2019-04-10T20:19:09.576Z,14.65
2019-04-10T20:21:50.365Z,14.68
2019-04-10T20:24:30.919Z,15.15
2019-04-10T20:27:12.005Z,15.28
2019-04-10T20:29:53.136Z,14.38
2019-04-10T20:32:34.682Z,15.18
2019-04-10T20:35:16.133Z,14.80
2019-04-10T20:37:56.863Z,14.95
2019-04-10T20:40:38.081Z,14.63
2019-04-10T20:43:18.586Z,14.58
2019-04-10T20:46:00.139Z,15.20
2019-04-10T20:48:40.792Z,15.05
2019-04-10T20:51:21.199Z,14.93
2019-04-10T20:54:02.331Z,15.43
2019-04-10T20:56:43.240Z,15.17
2019-04-10T20:59:24.379Z,14.63
2019-04-10T21:02:06.277Z,14.68
2019-04-10T21:04:56.362Z,14.97
2019-04-10T21:07:30.117Z,14.70
2019-04-10T21:10:11.110Z,15.03
2019-04-10T21:12:52.541Z,14.70
2019-04-10T21:15:33.630Z,15.08
2019-04-10T21:18:15.233Z,15.13
2019-04-10T21:20:55.754Z,14.80
2019-04-10T21:23:37.858Z,14.45
2019-04-10T21:26:19.853Z,14.93
2019-04-10T21:29:02.356Z,14.75
2019-04-10T21:32:03.194Z,15.10
2019-04-10T21:34:46.786Z,14.70
2019-04-10T21:37:28.366Z,15.03
2019-04-10T21:40:10.149Z,14.40
2019-04-10T21:42:51.926Z,14.80
2019-04-10T21:45:32.877Z,15.25
2019-04-10T21:48:14.662Z,15.45
2019-04-10T21:50:55.276Z,15.20
2019-04-10T21:53:37.347Z,15.85
2019-04-10T21:56:18.079Z,15.53
2019-04-10T21:58:59.155Z,16.30
2019-04-10T22:01:40.313Z,16.07
2019-04-10T22:04:21.117Z,16.82
2019-04-10T22:07:20.911Z,16.42
2019-04-10T22:10:21.035Z,16.57
2019-04-10T22:13:01.689Z,17.30
2019-04-10T22:15:44.913Z,17.37
2019-04-10T22:18:25.487Z,17.13
2019-04-10T22:21:06.559Z,17.98
2019-04-10T22:23:47.528Z,17.85
2019-04-10T22:26:28.483Z,18.02
2019-04-10T22:29:10.661Z,17.67
2019-04-10T22:31:53.382Z,18.05
2019-04-10T22:34:36.348Z,18.97
2019-04-10T22:37:16.983Z,18.73
2019-04-10T22:39:58.702Z,18.65
2019-04-10T22:42:44.035Z,19.07
2019-04-10T22:45:24.488Z,19.02
2019-04-10T22:48:06.166Z,19.12
2019-04-10T22:50:47.230Z,19.10
2019-04-10T22:53:17.291Z,19.07
2019-04-10T22:55:46.531Z,19.12
2019-04-10T22:58:15.445Z,19.47
2019-04-10T23:00:46.040Z,19.73
2019-04-10T23:03:15.808Z,19.85
2019-04-10T23:05:44.807Z,19.87
2019-04-10T23:08:13.546Z,20.43
2019-04-10T23:10:43.389Z,19.82
2019-04-10T23:13:13.904Z,20.60
2019-04-10T23:15:43.992Z,20.03
2019-04-10T23:18:13.035Z,20.70
2019-04-10T23:20:41.931Z,20.65
2019-04-10T23:23:10.705Z,21.15
2019-04-10T23:25:40.525Z,20.05
2019-04-10T23:28:09.561Z,20.30
2019-04-10T23:30:39.205Z,20.30
2019-04-10T23:33:08.155Z,20.03
2019-04-10T23:35:37.929Z,20.77
2019-04-10T23:38:07.064Z,20.20
2019-04-10T23:40:36.857Z,21.07
2019-04-10T23:43:12.938Z,21.35
2019-04-10T23:45:36.248Z,21.05
2019-04-10T23:48:05.208Z,20.35
2019-04-10T23:50:34.528Z,21.48
2019-04-10T23:53:04.398Z,21.73
2019-04-10T23:55:34.360Z,22.32
2019-04-10T23:58:03.175Z,20.92
